Time;durP1;ratioP1;P1;durP2;ratioP2;P2;SDS_P1;SDS_P2;PMS_P1;PMS_P2;Temp;Humidity;BMP_temperature;BMP_pressure;BME280_temperature;BME280_humidity;BME280_pressure;Samples;Min_cycle;Max_cycle;Signal;HPM_P1;HPM_P2
2024/03/06 00:02:07;;;;;;;;;;;2.30;99.90;;;1.22;100.00;98049.53;4967471;28;1354;-68
2024/03/06 00:04:34;;;;;;;;;;;2.30;99.90;;;1.25;100.00;98056.34;4955720;28;1371;-69
2024/03/06 00:07:01;;;;;;;;;;;2.10;99.90;;;1.23;100.00;98055.50;4949574;28;1911;-68
2024/03/06 00:09:28;;;;;;;;;;;2.00;99.90;;;1.17;100.00;98048.69;4954590;28;1259;-69
2024/03/06 00:11:55;;;;;;;;;;;1.90;99.90;;;1.23;100.00;98055.50;4955411;28;1639;-69
2024/03/06 00:14:23;;;;;;;;;;;1.90;99.90;;;1.08;100.00;98060.59;4950024;28;1395;-69
2024/03/06 00:16:50;;;;;;;;;;;1.90;99.90;;;1.17;100.00;98063.19;4966902;28;1298;-69
2024/03/06 00:19:18;;;;;;;;;;;2.00;99.90;;;1.29;100.00;98063.19;4965513;28;1373;-68
2024/03/06 00:21:45;;;;;;;;;;;2.10;99.90;;;1.36;100.00;98071.72;4953134;28;1370;-69
2024/03/06 00:24:12;;;;;;;;;;;2.20;99.90;;;1.39;100.00;98070.03;4962389;28;1275;-69
2024/03/06 00:26:41;;;;;;;;;;;2.20;99.90;;;1.35;100.00;98070.88;4954207;28;1278;-69
2024/03/06 00:29:08;;;;;;;;;;;2.20;99.90;;;1.19;100.00;98074.25;4950244;28;1915;-69
2024/03/06 00:31:36;;;;;;;;;;;2.10;99.90;;;1.25;100.00;98066.59;4977660;28;1706;-69
2024/03/06 00:34:03;;;;;;;;;;;2.10;99.90;;;1.08;100.00;98066.56;4964210;28;1650;-69
2024/03/06 00:36:29;;;;;;;;;;;2.00;99.90;;;0.97;100.00;98063.09;4950715;28;1375;-69
2024/03/06 00:38:56;;;;;;;;;;;2.00;99.90;;;1.06;100.00;98069.97;4953405;28;1332;-69
2024/03/06 00:41:23;;;;;;;;;;;2.00;99.90;;;1.07;100.00;98066.53;4955264;28;1362;-69
2024/03/06 00:43:50;;;;;;;;;;;2.00;99.90;;;1.07;100.00;98067.38;4956284;28;1441;-69
2024/03/06 00:46:17;;;;;;;;;;;2.00;99.90;;;1.00;100.00;98068.22;4940595;28;1452;-69
2024/03/06 00:48:43;;;;;;;;;;;2.00;99.90;;;1.02;100.00;98062.25;4972752;28;1903;-69
2024/03/06 00:51:10;;;;;;;;;;;2.00;99.90;;;1.06;100.00;98060.59;4945623;28;1244;-69
2024/03/06 00:53:37;;;;;;;;;;;2.00;99.90;;;1.04;100.00;98055.44;4956655;28;1291;-69
2024/03/06 00:56:04;;;;;;;;;;;2.10;99.90;;;0.93;100.00;98059.69;4950133;28;1224;-69
2024/03/06 00:58:31;;;;;;;;;;;2.10;99.90;;;0.92;100.00;98060.53;4948023;28;1252;-69
2024/03/06 01:00:58;;;;;;;;;;;2.10;99.90;;;0.76;100.00;98067.28;4953712;28;1520;-69
2024/03/06 01:03:25;;;;;;;;;;;2.00;99.90;;;0.82;100.00;98061.34;4957461;28;1259;-69
2024/03/06 01:05:53;;;;;;;;;;;2.00;99.90;;;0.76;100.00;98062.19;4966290;28;1286;-69
2024/03/06 01:08:20;;;;;;;;;;;2.00;99.90;;;0.88;100.00;98061.38;4955880;28;1974;-69
2024/03/06 01:10:47;;;;;;;;;;;2.00;99.90;;;0.88;100.00;98058.81;4975252;28;1430;-68
2024/03/06 01:13:14;;;;;;;;;;;1.90;99.90;;;0.74;100.00;98066.44;4948097;28;1311;-69
2024/03/06 01:15:40;;;;;;;;;;;2.00;99.90;;;0.79;100.00;98049.41;4952284;28;1399;-69
2024/03/06 01:18:07;;;;;;;;;;;2.00;99.90;;;0.71;100.00;98052.78;4961258;28;1282;-68
2024/03/06 01:20:34;;;;;;;;;;;1.90;99.90;;;0.64;100.00;98041.69;4948438;28;1451;-68
2024/03/06 01:23:01;;;;;;;;;;;1.90;99.90;;;0.58;100.00;98036.56;4956462;28;1389;-69
2024/03/06 01:25:28;;;;;;;;;;;1.80;99.90;;;0.46;100.00;98033.94;4947580;28;1465;-69
2024/03/06 01:27:55;;;;;;;;;;;1.80;99.90;;;0.37;100.00;98035.59;4949375;28;1979;-69
2024/03/06 01:30:21;;;;;;;;;;;1.70;99.90;;;0.40;100.00;98037.31;4960541;28;1359;-69
2024/03/06 01:32:48;;;;;;;;;;;1.70;99.90;;;0.48;100.00;98038.22;4949670;28;1298;-69
2024/03/06 01:35:15;;;;;;;;;;;1.70;99.90;;;0.48;100.00;98042.44;4959299;28;1350;-69
2024/03/06 01:37:42;;;;;;;;;;;1.70;99.90;;;0.55;100.00;98045.06;4947740;28;1632;-70
2024/03/06 01:40:10;;;;;;;;;;;1.70;99.90;;;0.58;100.00;98044.22;4944931;28;1398;-69
2024/03/06 01:42:37;;;;;;;;;;;1.70;99.90;;;0.63;100.00;98051.03;4945737;28;1038;-70
2024/03/06 01:45:04;;;;;;;;;;;1.80;99.90;;;0.62;100.00;98046.78;4948055;28;1288;-69
2024/03/06 01:47:31;;;;;;;;;;;1.80;99.90;;;0.65;100.00;98050.22;4938805;28;2385;-68
2024/03/06 01:49:58;;;;;;;;;;;1.80;99.90;;;0.69;100.00;98047.69;4942562;28;1112;-68
2024/03/06 01:52:25;;;;;;;;;;;1.80;99.90;;;0.68;100.00;98057.88;4971777;28;1354;-69
2024/03/06 01:54:52;;;;;;;;;;;1.80;99.90;;;0.71;100.00;98065.53;4947889;28;1288;-70
2024/03/06 01:57:20;;;;;;;;;;;1.70;99.90;;;0.71;100.00;98060.44;4952098;28;1208;-70
2024/03/06 01:59:47;;;;;;;;;;;1.70;99.90;;;0.55;100.00;98060.38;4936335;28;1074;-70
2024/03/06 02:02:15;;;;;;;;;;;1.70;99.90;;;0.40;100.00;98058.59;4952710;28;1355;-69
2024/03/06 02:04:42;;;;;;;;;;;1.60;99.90;;;0.66;100.00;98054.47;4941144;28;1273;-69
2024/03/06 02:07:13;;;;;;;;;;;1.60;99.90;;;0.63;100.00;98056.16;4962132;28;1185;-69
2024/03/06 02:09:40;;;;;;;;;;;1.60;99.90;;;0.58;100.00;98054.44;4942898;28;1910;-69
2024/03/06 02:12:10;;;;;;;;;;;1.70;99.90;;;0.34;100.00;98043.25;4933134;28;1359;-69
2024/03/06 02:14:37;;;;;;;;;;;1.70;99.90;;;0.40;100.00;98045.81;4939809;28;1233;-69
2024/03/06 02:17:03;;;;;;;;;;;1.60;99.90;;;0.25;100.00;98040.66;4953427;28;1439;-69
2024/03/06 02:19:41;;;;;;;;;;;1.60;99.90;;;0.34;100.00;98042.38;4946722;28;1618;-69
2024/03/06 02:22:08;;;;;;;;;;;1.60;99.90;;;0.36;100.00;98045.81;4954557;28;1284;-69
2024/03/06 02:24:36;;;;;;;;;;;1.60;99.90;;;0.38;100.00;98051.78;4947054;28;1114;-69
2024/03/06 02:27:06;;;;;;;;;;;1.50;99.90;;;0.36;100.00;98049.19;4941540;28;1117;-69
2024/03/06 02:29:33;;;;;;;;;;;1.40;99.90;;;0.18;100.00;98046.53;4940536;28;2019;-69
2024/03/06 02:32:02;;;;;;;;;;;1.40;99.90;;;0.18;100.00;98044.00;4950339;28;1440;-69
2024/03/06 02:34:32;;;;;;;;;;;1.40;99.90;;;0.25;100.00;98044.88;4941696;28;1046;-69
2024/03/06 02:36:59;;;;;;;;;;;1.40;99.90;;;0.15;100.00;98033.78;4943089;28;1292;-69
2024/03/06 02:39:25;;;;;;;;;;;1.40;99.90;;;0.04;100.00;98046.47;4942906;28;1111;-69
2024/03/06 02:41:52;;;;;;;;;;;1.30;99.90;;;-0.07;100.00;98048.06;4945532;28;1276;-69
2024/03/06 02:44:19;;;;;;;;;;;1.30;99.90;;;-0.10;100.00;98054.03;4951363;28;1219;-69
2024/03/06 02:46:50;;;;;;;;;;;1.30;99.90;;;0.06;100.00;98059.25;4941320;28;1249;-69
2024/03/06 02:49:18;;;;;;;;;;;1.30;99.90;;;-0.08;100.00;98059.16;4937098;28;1994;-69
2024/03/06 02:51:45;;;;;;;;;;;1.20;99.90;;;-0.14;100.00;98061.63;4939901;28;1450;-69
2024/03/06 02:54:12;;;;;;;;;;;1.10;99.90;;;-0.19;100.00;98059.06;4942691;28;1141;-70
2024/03/06 02:56:38;;;;;;;;;;;1.10;99.90;;;-0.38;100.00;98065.72;4944691;28;1955;-67
2024/03/06 02:59:05;;;;;;;;;;;1.00;99.90;;;-0.30;100.00;98070.88;4949363;28;1146;-69
2024/03/06 03:01:32;;;;;;;;;;;1.00;99.90;;;-0.23;100.00;98076.06;4953124;28;1308;-70
2024/03/06 03:03:59;;;;;;;;;;;1.00;99.90;;;-0.03;100.00;98076.19;4955974;28;1182;-70
2024/03/06 03:06:26;;;;;;;;;;;1.10;99.90;;;0.12;100.00;98077.16;4947082;28;1082;-70
2024/03/06 03:08:53;;;;;;;;;;;1.20;99.90;;;0.12;100.00;98072.91;4940038;28;1907;-70
2024/03/06 03:11:20;;;;;;;;;;;1.30;99.90;;;0.24;100.00;98068.72;4948697;28;1403;-70
2024/03/06 03:13:47;;;;;;;;;;;1.30;99.90;;;0.32;100.00;98061.94;4945788;28;1123;-70
2024/03/06 03:16:20;;;;;;;;;;;1.40;99.90;;;0.29;100.00;98059.38;4960854;28;1134;-70
2024/03/06 03:18:47;;;;;;;;;;;1.40;99.90;;;0.33;100.00;98061.97;4943594;28;1227;-69
2024/03/06 03:21:15;;;;;;;;;;;1.50;99.90;;;0.18;100.00;98059.31;4948424;28;1336;-69
2024/03/06 03:23:41;;;;;;;;;;;1.40;99.90;;;0.13;100.00;98061.84;4944786;28;1086;-69
2024/03/06 03:26:11;;;;;;;;;;;1.40;99.90;;;0.20;100.00;98060.19;4950547;28;1118;-69
2024/03/06 03:28:39;;;;;;;;;;;1.40;99.90;;;0.26;100.00;98054.28;4948525;28;1988;-70
2024/03/06 03:31:10;;;;;;;;;;;1.40;99.90;;;0.32;100.00;98049.19;4950107;28;1388;-69
2024/03/06 03:33:40;;;;;;;;;;;1.40;99.90;;;0.35;100.00;98055.16;4950174;28;1340;-70
2024/03/06 03:36:07;;;;;;;;;;;1.40;99.90;;;0.22;100.00;98055.94;4947998;28;1280;-69
2024/03/06 03:38:40;;;;;;;;;;;1.50;99.90;;;0.25;100.00;98053.41;4954679;28;1237;-69
2024/03/06 03:41:16;;;;;;;;;;;1.40;99.90;;;0.08;100.00;98063.50;4940902;28;1430;-69
2024/03/06 03:43:43;;;;;;;;;;;1.30;99.90;;;0.12;100.00;98066.94;4946769;28;1257;-70
2024/03/06 03:46:10;;;;;;;;;;;1.20;99.90;;;-0.05;100.00;98067.66;4951729;28;1126;-70
2024/03/06 03:48:37;;;;;;;;;;;1.10;99.90;;;0.04;100.00;98071.13;4966710;28;2013;-70
2024/03/06 03:51:06;;;;;;;;;;;1.00;99.90;;;-0.04;100.00;98069.38;4943457;28;1284;-70
2024/03/06 03:53:33;;;;;;;;;;;1.00;99.90;;;-0.02;100.00;98075.34;4948913;28;1174;-70
2024/03/06 03:56:01;;;;;;;;;;;1.10;99.90;;;0.25;100.00;98084.06;4946730;28;1106;-70
2024/03/06 03:58:28;;;;;;;;;;;1.20;99.90;;;0.29;100.00;98083.22;4940963;28;1458;-69
2024/03/06 04:00:55;;;;;;;;;;;1.30;99.90;;;0.28;100.00;98086.63;4947466;28;1355;-70
2024/03/06 04:03:23;;;;;;;;;;;1.30;99.90;;;0.28;100.00;98086.63;4947755;28;1245;-69
2024/03/06 04:05:50;;;;;;;;;;;1.30;99.90;;;0.34;100.00;98076.47;4945074;28;1312;-70
2024/03/06 04:08:17;;;;;;;;;;;1.40;99.90;;;0.40;100.00;98079.03;4947681;28;1910;-70
2024/03/06 04:10:45;;;;;;;;;;;1.40;99.90;;;0.40;100.00;98075.63;4945690;28;1329;-69
2024/03/06 04:13:12;;;;;;;;;;;1.50;99.90;;;0.44;100.00;98071.41;4952566;28;1100;-69
2024/03/06 04:15:39;;;;;;;;;;;1.60;99.90;;;0.12;100.00;98075.44;4947804;28;1423;-70
2024/03/06 04:18:06;;;;;;;;;;;1.50;99.90;;;0.15;100.00;98082.28;4943198;28;1114;-69
2024/03/06 04:20:33;;;;;;;;;;;1.40;99.90;;;0.24;100.00;98091.69;4946802;28;1253;-69
2024/03/06 04:23:00;;;;;;;;;;;1.40;99.90;;;0.20;100.00;98091.66;4956641;28;1123;-69
2024/03/06 04:25:27;;;;;;;;;;;1.30;99.90;;;0.04;100.00;98091.56;4945905;28;1095;-69
2024/03/06 04:27:54;;;;;;;;;;;1.30;99.90;;;0.00;100.00;98095.78;4940573;28;1299;-69
2024/03/06 04:30:21;;;;;;;;;;;1.30;99.90;;;0.12;100.00;98098.44;4951701;28;2009;-69
2024/03/06 04:32:47;;;;;;;;;;;1.20;99.90;;;0.26;100.00;98093.41;4943275;28;1133;-69
2024/03/06 04:35:15;;;;;;;;;;;1.20;99.90;;;0.17;100.00;98103.56;4950165;28;1070;-69
2024/03/06 04:37:43;;;;;;;;;;;1.20;99.90;;;0.22;100.00;98112.09;4949896;28;1134;-69
2024/03/06 04:40:11;;;;;;;;;;;1.20;99.90;;;0.25;100.00;98112.16;4950195;28;1359;-69
2024/03/06 04:42:38;;;;;;;;;;;1.30;99.90;;;0.30;100.00;98109.63;4944611;28;1165;-69
2024/03/06 04:45:11;;;;;;;;;;;1.40;99.90;;;0.27;100.00;98117.25;4941893;28;1301;-69
2024/03/06 04:47:38;;;;;;;;;;;1.40;99.90;;;0.30;100.00;98117.28;4981396;28;1233;-69
2024/03/06 04:50:09;;;;;;;;;;;1.40;99.90;;;0.25;100.00;98118.91;4942578;28;1978;-69
2024/03/06 04:52:37;;;;;;;;;;;1.30;99.90;;;0.17;100.00;98122.28;4944689;28;1027;-69
2024/03/06 04:55:06;;;;;;;;;;;1.30;99.90;;;0.14;100.00;98124.81;4946912;28;1010;-69
2024/03/06 04:57:34;;;;;;;;;;;1.30;99.90;;;0.15;100.00;98115.47;4943353;28;1245;-69
2024/03/06 05:00:05;;;;;;;;;;;1.30;99.90;;;0.27;100.00;98122.34;4943463;28;1388;-69
2024/03/06 05:02:34;;;;;;;;;;;1.30;99.90;;;0.23;100.00;98125.72;4944753;28;1336;-69
2024/03/06 05:05:18;;;;;;;;;;;1.20;99.90;;;0.14;100.00;98124.81;4950046;28;1070;-69
2024/03/06 05:08:02;;;;;;;;;;;1.20;99.90;;;0.26;100.00;98131.72;4946425;28;1090;-69
2024/03/06 05:10:46;;;;;;;;;;;1.30;99.90;;;0.14;100.00;98141.84;4947357;28;1359;-69
2024/03/06 05:13:31;;;;;;;;;;;1.30;99.90;;;0.02;100.00;98144.28;4951207;28;1154;-69
2024/03/06 05:16:15;;;;;;;;;;;1.30;99.90;;;-0.02;100.00;98143.41;4946943;28;1042;-69
2024/03/06 05:18:59;;;;;;;;;;;1.20;99.90;;;0.07;100.00;98150.28;4944732;28;1078;-69
2024/03/06 05:21:44;;;;;;;;;;;1.20;99.90;;;-0.15;100.00;98144.16;4942166;28;1396;-69
2024/03/06 05:24:29;;;;;;;;;;;1.20;99.90;;;-0.10;100.00;98153.53;4946453;28;1136;-69
2024/03/06 05:27:16;;;;;;;;;;;1.20;99.90;;;-0.10;100.00;98162.91;4950095;28;1173;-69
2024/03/06 05:30:04;;;;;;;;;;;1.10;99.90;;;-0.12;100.00;98159.47;4954683;28;1898;-69
2024/03/06 05:32:48;;;;;;;;;;;1.00;99.90;;;-0.05;100.00;98164.63;4954478;28;854;-69
2024/03/06 05:35:32;;;;;;;;;;;0.90;99.90;;;-0.28;100.00;98164.41;4950641;28;1165;-69
2024/03/06 05:38:16;;;;;;;;;;;0.90;99.90;;;-0.10;100.00;98165.44;4950604;28;1098;-69
2024/03/06 05:41:00;;;;;;;;;;;0.90;99.90;;;-0.04;100.00;98168.91;4947001;28;1315;-69
2024/03/06 05:43:44;;;;;;;;;;;1.00;99.90;;;-0.01;100.00;98165.53;4952768;28;1042;-69
2024/03/06 05:46:29;;;;;;;;;;;1.10;99.90;;;0.12;100.00;98171.59;4943636;28;1192;-69
2024/03/06 05:49:13;;;;;;;;;;;1.20;99.90;;;0.16;100.00;98174.19;4945946;28;1984;-70
2024/03/06 05:51:58;;;;;;;;;;;1.20;99.90;;;0.32;100.00;98174.28;4940345;28;1462;-69
2024/03/06 05:54:42;;;;;;;;;;;1.30;99.90;;;0.16;100.00;98169.09;4943593;28;1195;-69
2024/03/06 05:57:26;;;;;;;;;;;1.30;99.90;;;0.13;100.00;98173.31;4935034;28;1319;-69
2024/03/06 06:00:11;;;;;;;;;;;1.30;99.90;;;0.18;100.00;98174.19;4950746;28;1386;-69
2024/03/06 06:02:38;;;;;;;;;;;1.30;99.90;;;0.19;100.00;98174.22;4941976;28;1117;-69
2024/03/06 06:05:07;;;;;;;;;;;1.40;99.90;;;0.19;100.00;98179.31;4944236;28;1073;-69
2024/03/06 06:07:50;;;;;;;;;;;1.30;99.90;;;0.14;100.00;98186.09;4938619;28;1292;-69
2024/03/06 06:10:17;;;;;;;;;;;1.30;99.90;;;0.28;100.00;98193.88;4946785;28;1914;-69
2024/03/06 06:12:48;;;;;;;;;;;1.30;99.90;;;0.35;100.00;98189.66;4959950;28;1300;-69
2024/03/06 06:15:15;;;;;;;;;;;1.40;99.90;;;0.44;100.00;98199.09;4950448;28;1125;-69
2024/03/06 06:17:44;;;;;;;;;;;1.40;99.90;;;0.44;100.00;98202.50;4948545;28;1226;-69
2024/03/06 06:20:14;;;;;;;;;;;1.40;99.90;;;0.36;100.00;98204.13;4942668;28;1303;-69
2024/03/06 06:22:43;;;;;;;;;;;1.40;99.90;;;0.04;100.00;98214.06;4948921;28;1165;-69
2024/03/06 06:25:10;;;;;;;;;;;1.40;99.90;;;0.24;100.00;98216.81;4942216;28;1204;-69
2024/03/06 06:27:38;;;;;;;;;;;1.30;99.90;;;0.24;100.00;98222.75;4940186;28;1375;-69
2024/03/06 06:30:06;;;;;;;;;;;1.20;99.90;;;0.27;100.00;98221.91;4953847;28;1951;-69
2024/03/06 06:32:34;;;;;;;;;;;1.10;99.90;;;0.25;100.00;98226.16;4941145;28;1218;-69
2024/03/06 06:35:02;;;;;;;;;;;1.10;99.90;;;0.10;100.00;98234.56;4943769;28;1102;-69
2024/03/06 06:37:28;;;;;;;;;;;1.00;99.90;;;-0.11;100.00;98242.84;4940472;28;1435;-69
2024/03/06 06:39:55;;;;;;;;;;;0.90;99.90;;;-0.15;100.00;98249.59;4938952;28;1078;-69
2024/03/06 06:42:22;;;;;;;;;;;0.80;99.90;;;-0.18;100.00;98241.94;4939572;28;1399;-70
2024/03/06 06:44:49;;;;;;;;;;;0.80;99.90;;;0.01;100.00;98250.63;4942391;28;1355;-70
2024/03/06 06:47:16;;;;;;;;;;;0.90;99.90;;;-0.20;100.00;98258.06;4943874;28;1118;-70
2024/03/06 06:49:44;;;;;;;;;;;1.00;99.90;;;-0.24;100.00;98267.38;4934138;28;1969;-70
2024/03/06 06:52:11;;;;;;;;;;;0.90;99.90;;;-0.04;100.00;98271.00;4937076;28;1397;-70
2024/03/06 06:54:38;;;;;;;;;;;0.80;99.90;;;-0.05;100.00;98268.41;4945015;28;1220;-70
2024/03/06 06:57:05;;;;;;;;;;;0.80;99.90;;;-0.04;100.00;98276.09;4947506;28;1059;-70
2024/03/06 06:59:32;;;;;;;;;;;0.90;99.90;;;0.12;100.00;98272.00;4938617;28;1218;-70
2024/03/06 07:01:59;;;;;;;;;;;1.00;99.90;;;0.15;100.00;98282.25;4946363;28;1454;-69
2024/03/06 07:04:27;;;;;;;;;;;1.10;99.90;;;0.10;100.00;98288.16;4950074;28;1331;-69
2024/03/06 07:06:54;;;;;;;;;;;1.10;99.90;;;0.23;100.00;98284.00;4943682;28;1282;-69
2024/03/06 07:09:21;;;;;;;;;;;1.00;99.90;;;0.12;100.00;98289.03;4935321;28;1910;-69
2024/03/06 07:11:47;;;;;;;;;;;1.10;99.90;;;0.16;100.00;98293.28;4944359;28;1426;-70
2024/03/06 07:14:15;;;;;;;;;;;1.10;99.90;;;0.22;100.00;98288.25;4942680;28;1033;-70
2024/03/06 07:16:43;;;;;;;;;;;1.20;99.90;;;0.35;100.00;98292.66;4942531;28;1256;-69
2024/03/06 07:19:10;;;;;;;;;;;1.10;99.90;;;0.08;100.00;98294.94;4973314;28;1163;-70
2024/03/06 07:21:37;;;;;;;;;;;1.20;99.90;;;0.17;100.00;98297.59;4937251;28;1387;-69
2024/03/06 07:24:05;;;;;;;;;;;1.20;99.90;;;0.12;100.00;98300.09;4965643;28;1461;-70
2024/03/06 07:26:32;;;;;;;;;;;1.10;99.90;;;0.15;100.00;98297.56;4927048;28;1168;-70
2024/03/06 07:29:00;;;;;;;;;;;1.20;99.90;;;0.35;100.00;98297.75;4940931;28;1987;-69
2024/03/06 07:31:28;;;;;;;;;;;1.20;99.90;;;0.29;100.00;98304.50;4945708;28;1468;-69
2024/03/06 07:33:54;;;;;;;;;;;1.30;99.90;;;0.43;100.00;98312.31;4943065;28;1310;-70
2024/03/06 07:36:21;;;;;;;;;;;1.50;99.90;;;0.67;100.00;98315.09;4955622;28;1475;-69
2024/03/06 07:38:49;;;;;;;;;;;1.70;99.90;;;0.71;100.00;98310.84;4945395;28;1379;-70
2024/03/06 07:41:15;;;;;;;;;;;1.80;99.90;;;0.86;100.00;98321.19;4972832;28;1389;-69
2024/03/06 07:43:43;;;;;;;;;;;1.90;99.90;;;0.95;100.00;98328.06;4939585;28;1470;-69
2024/03/06 07:46:13;;;;;;;;;;;2.00;99.90;;;1.47;100.00;98325.88;4942847;28;1282;-70
2024/03/06 07:48:44;;;;;;;;;;;2.00;99.90;;;1.72;100.00;98342.22;4941428;28;1358;-70
2024/03/06 07:51:11;;;;;;;;;;;2.00;99.90;;;1.57;100.00;98339.56;4942744;28;1513;-70
2024/03/06 07:53:37;;;;;;;;;;;2.10;99.90;;;1.97;100.00;98334.66;4941458;28;1439;-70
2024/03/06 07:56:04;;;;;;;;;;;2.30;99.90;;;2.25;100.00;98340.69;4946860;28;1399;-70
2024/03/06 07:58:31;;;;;;;;;;;2.60;99.90;;;2.40;100.00;98339.91;4943750;28;1371;-69
2024/03/06 08:00:59;;;;;;;;;;;3.00;99.90;;;2.20;100.00;98335.56;4948677;28;1898;-70
2024/03/06 08:03:26;;;;;;;;;;;3.10;99.90;;;2.79;100.00;98338.25;4946980;28;1182;-70
2024/03/06 08:05:53;;;;;;;;;;;3.20;99.90;;;2.57;100.00;98332.22;4947331;28;1375;-70
2024/03/06 08:08:21;;;;;;;;;;;3.30;99.90;;;2.82;100.00;98336.53;4945872;28;1357;-70
2024/03/06 08:10:48;;;;;;;;;;;3.50;99.90;;;2.85;100.00;98336.53;4941296;28;1907;-70
2024/03/06 08:13:15;;;;;;;;;;;3.80;99.90;;;3.67;100.00;98344.13;4945856;28;1107;-70
2024/03/06 08:15:44;;;;;;;;;;;4.20;99.90;;;4.40;100.00;98345.53;4949015;28;1485;-70
2024/03/06 08:18:11;;;;;;;;;;;4.80;99.90;;;4.03;100.00;98332.03;4951425;28;1173;-70
2024/03/06 08:20:38;;;;;;;;;;;5.20;99.90;;;4.20;100.00;98325.09;4940831;28;1260;-69
2024/03/06 08:23:07;;;;;;;;;;;5.00;99.90;;;4.03;100.00;98322.59;4951618;28;1117;-70
2024/03/06 08:25:34;;;;;;;;;;;4.80;99.90;;;3.75;100.00;98315.00;4945082;28;1158;-69
2024/03/06 08:28:03;;;;;;;;;;;4.50;99.90;;;3.59;100.00;98315.06;4943998;28;1165;-69
2024/03/06 08:30:32;;;;;;;;;;;4.20;99.90;;;2.88;100.00;98304.91;4972891;28;1907;-69
2024/03/06 08:33:00;;;;;;;;;;;4.00;99.90;;;3.16;100.00;98308.31;4944893;28;1392;-69
2024/03/06 08:35:28;;;;;;;;;;;3.80;99.90;;;2.88;100.00;98310.03;4949279;28;1475;-69
2024/03/06 08:37:54;;;;;;;;;;;3.60;99.90;;;2.96;100.00;98310.88;4981767;28;2021;-69
2024/03/06 08:40:23;;;;;;;;;;;3.60;99.90;;;2.62;100.00;98310.91;4944769;28;1398;-69
2024/03/06 08:42:50;;;;;;;;;;;3.50;99.90;;;2.90;100.00;98324.56;4939827;28;1170;-69
2024/03/06 08:45:17;;;;;;;;;;;3.60;99.90;;;2.77;100.00;98327.97;4941442;28;1177;-69
2024/03/06 08:47:44;;;;;;;;;;;3.70;99.90;;;3.18;100.00;98334.81;4940684;28;1230;-69
2024/03/06 08:50:12;;;;;;;;;;;3.80;99.90;;;3.34;100.00;98336.50;4945875;28;1895;-69
2024/03/06 08:52:39;;;;;;;;;;;3.90;99.90;;;3.29;100.00;98348.50;4982529;28;1085;-70
2024/03/06 08:55:07;;;;;;;;;;;4.00;99.90;;;3.45;100.00;98340.78;4927810;28;1225;-69
2024/03/06 08:57:37;;;;;;;;;;;4.20;99.90;;;3.67;100.00;98354.41;4950023;28;1125;-69
2024/03/06 09:00:12;;;;;;;;;;;4.20;99.90;;;3.91;100.00;98356.03;4949947;28;1188;-69
2024/03/06 09:02:40;;;;;;;;;;;4.20;99.90;;;4.30;100.00;98344.72;4941104;28;1111;-70
2024/03/06 09:05:10;;;;;;;;;;;4.30;99.90;;;4.48;100.00;98358.34;4939607;28;1123;-69
2024/03/06 09:07:38;;;;;;;;;;;4.30;99.90;;;4.55;100.00;98355.72;4973635;28;1167;-69
2024/03/06 09:10:11;;;;;;;;;;;4.40;99.90;;;4.60;100.00;98355.69;4958147;28;1919;-69
2024/03/06 09:12:38;;;;;;;;;;;4.40;99.90;;;4.66;100.00;98344.53;4945346;28;1059;-70
2024/03/06 09:15:07;;;;;;;;;;;4.50;99.90;;;4.79;100.00;98348.75;4948730;28;1102;-70
2024/03/06 09:17:34;;;;;;;;;;;4.50;99.90;;;4.42;100.00;98341.25;4947079;28;1136;-70
2024/03/06 09:20:09;;;;;;;;;;;4.60;99.90;;;4.81;100.00;98335.00;4939065;28;1134;-70
2024/03/06 09:22:41;;;;;;;;;;;4.70;99.90;;;4.84;100.00;98346.13;4943946;28;1102;-70
2024/03/06 09:25:09;;;;;;;;;;;4.80;99.90;;;4.85;100.00;98345.25;4948862;28;1405;-70
2024/03/06 09:27:36;;;;;;;;;;;5.00;99.90;;;4.86;100.00;98350.41;4953817;28;1219;-70
2024/03/06 09:30:03;;;;;;;;;;;5.20;99.90;;;4.95;100.00;98352.03;4924580;28;1980;-70
2024/03/06 09:32:30;;;;;;;;;;;5.30;99.90;;;5.35;100.00;98355.13;4950688;28;1363;-70
2024/03/06 09:34:59;;;;;;;;;;;5.50;99.90;;;5.77;100.00;98349.53;4948227;28;1154;-70
2024/03/06 09:37:27;;;;;;;;;;;5.60;99.90;;;5.62;100.00;98342.84;4938855;28;1062;-70
2024/03/06 09:39:54;;;;;;;;;;;5.60;99.90;;;5.44;100.00;98349.03;4947178;28;1168;-70
2024/03/06 09:42:21;;;;;;;;;;;5.80;99.90;;;5.93;100.00;98340.81;4946179;28;1284;-70
2024/03/06 09:44:47;;;;;;;;;;;6.10;99.90;;;6.26;100.00;98336.97;4946952;28;1122;-68
2024/03/06 09:47:22;;;;;;;;;;;6.10;99.90;;;6.42;100.00;98327.28;4944242;28;1029;-70
2024/03/06 09:49:50;;;;;;;;;;;6.30;99.90;;;7.01;100.00;98322.13;4960560;28;1903;-70
2024/03/06 09:52:17;;;;;;;;;;;6.70;99.90;;;7.25;100.00;98313.13;4944962;28;1249;-70
2024/03/06 09:54:44;;;;;;;;;;;7.10;99.90;;;7.30;100.00;98300.13;4977612;28;1231;-70
2024/03/06 09:57:12;;;;;;;;;;;7.60;99.90;;;7.98;100.00;98302.25;4954331;28;1514;-70
2024/03/06 09:59:43;;;;;;;;;;;7.90;99.90;;;8.76;100.00;98286.78;4943171;28;1134;-70
2024/03/06 10:02:19;;;;;;;;;;;8.50;99.90;;;8.92;100.00;98284.66;4948964;28;1296;-70
2024/03/06 10:04:46;;;;;;;;;;;8.90;99.90;;;8.73;100.00;98264.38;4942100;28;1113;-69
2024/03/06 10:07:13;;;;;;;;;;;9.00;99.90;;;8.90;100.00;98257.97;4961384;28;1154;-70
2024/03/06 10:09:40;;;;;;;;;;;9.30;99.90;;;9.29;100.00;98253.50;4955330;28;1982;-69
2024/03/06 10:12:07;;;;;;;;;;;9.40;99.90;;;8.73;100.00;98248.84;4947558;28;1292;-70
2024/03/06 10:14:35;;;;;;;;;;;9.50;99.90;;;8.64;100.00;98238.72;4946768;28;1073;-70
2024/03/06 10:17:03;;;;;;;;;;;9.50;99.90;;;8.78;100.00;98240.97;4936309;28;1441;-70
2024/03/06 10:19:31;;;;;;;;;;;9.30;99.90;;;8.87;100.00;98232.13;4947544;28;1361;-70
2024/03/06 10:21:57;;;;;;;;;;;9.20;99.90;;;9.42;100.00;98233.28;4952695;28;1401;-70
2024/03/06 10:24:29;;;;;;;;;;;9.40;99.90;;;8.72;100.00;98228.19;4955741;28;1087;-69
2024/03/06 10:26:58;;;;;;;;;;;9.40;99.90;;;8.45;100.00;98225.38;4955515;28;1078;-69
2024/03/06 10:29:28;;;;;;;;;;;9.30;99.90;;;8.73;100.00;98215.19;4944112;28;1910;-69
2024/03/06 10:31:57;;;;;;;;;;;9.30;99.90;;;8.90;100.00;98211.34;4955824;28;1454;-69
2024/03/06 10:34:25;;;;;;;;;;;9.30;99.90;;;8.32;100.00;98205.81;4945278;28;1184;-70
2024/03/06 10:36:57;;;;;;;;;;;9.20;99.90;;;8.45;100.00;98214.19;4950099;28;1169;-69
2024/03/06 10:39:24;;;;;;;;;;;9.20;99.90;;;8.52;100.00;98203.66;4953077;28;1190;-69
2024/03/06 10:41:54;;;;;;;;;;;9.20;99.90;;;9.10;100.00;98187.50;4952017;28;1350;-70
2024/03/06 10:44:23;;;;;;;;;;;9.40;99.90;;;8.56;100.00;98184.56;4954450;28;1149;-70
2024/03/06 10:46:58;;;;;;;;;;;9.40;99.90;;;8.94;100.00;98174.13;4944534;28;1446;-69
2024/03/06 10:49:27;;;;;;;;;;;9.30;99.90;;;8.30;100.00;98176.56;4958505;28;1270;-69
2024/03/06 10:51:58;;;;;;;;;;;9.30;99.90;;;8.48;100.00;98177.88;4945862;28;2010;-69
2024/03/06 10:54:34;;;;;;;;;;;9.30;99.90;;;8.84;100.00;98170.09;4952920;28;1313;-69
2024/03/06 10:57:02;;;;;;;;;;;9.40;99.90;;;8.55;100.00;98175.13;4944022;28;1791;-70
2024/03/06 10:59:29;;;;;;;;;;;9.50;99.90;;;8.62;100.00;98174.94;4953923;28;1683;-69
2024/03/06 11:01:57;;;;;;;;;;;9.40;99.90;;;8.80;100.00;98164.13;4941096;28;1312;-70
2024/03/06 11:04:30;;;;;;;;;;;9.40;99.90;;;8.88;100.00;98161.34;4941916;28;1462;-70
2024/03/06 11:06:57;;;;;;;;;;;9.50;99.90;;;8.99;100.00;98162.75;4952071;28;1162;-69
2024/03/06 11:09:24;;;;;;;;;;;9.40;99.90;;;9.29;100.00;98156.78;4946125;28;1121;-69
2024/03/06 11:11:52;;;;;;;;;;;9.60;99.90;;;9.17;100.00;98158.84;4945838;28;1985;-69
2024/03/06 11:14:21;;;;;;;;;;;9.70;99.90;;;9.00;100.00;98155.84;4954080;28;1220;-69
2024/03/06 11:17:08;;;;;;;;;;;9.70;99.90;;;9.12;100.00;98167.59;4954911;28;1109;-69
2024/03/06 11:20:00;;;;;;;;;;;9.80;99.90;;;9.31;100.00;98173.16;4943266;28;1146;-69
2024/03/06 11:22:56;;;;;;;;;;;9.60;99.90;;;9.13;100.00;98179.69;4940419;28;1379;-69
2024/03/06 11:25:51;;;;;;;;;;;9.80;99.90;;;9.57;100.00;98181.00;4938333;28;1093;-69
2024/03/06 11:28:18;;;;;;;;;;;9.80;99.90;;;9.76;100.00;98175.28;4943098;28;1192;-70
2024/03/06 11:30:49;;;;;;;;;;;9.90;99.90;;;9.52;100.00;98174.28;4967227;28;1883;-69
2024/03/06 11:33:18;;;;;;;;;;;9.90;99.90;;;9.73;100.00;98165.00;4949162;28;1381;-69
2024/03/06 11:36:16;;;;;;;;;;;10.10;99.90;;;10.33;100.00;98166.66;4941527;28;1090;-69
2024/03/06 11:38:53;;;;;;;;;;;10.40;99.90;;;9.91;100.00;98166.22;4947986;28;1403;-69
2024/03/06 11:41:22;;;;;;;;;;;10.70;99.90;;;9.82;100.00;98162.97;4951735;28;1349;-69
2024/03/06 11:43:53;;;;;;;;;;;10.40;99.90;;;10.01;100.00;98165.00;4958271;28;1519;-69